createdAt,value
2019-01-20T00:02:09.389Z,37.1
2019-01-20T00:05:15.256Z,37
2019-01-20T00:08:21.302Z,37.1
2019-01-20T00:11:27.186Z,37
2019-01-20T00:14:33.229Z,37.1
2019-01-20T00:17:39.183Z,37.1
2019-01-20T00:20:45.141Z,37.1
2019-01-20T00:23:51.104Z,37.1
2019-01-20T00:26:57.166Z,37.2
2019-01-20T00:30:06.248Z,37.1
2019-01-20T00:33:12.062Z,37.1
2019-01-20T00:36:18.121Z,37.1
2019-01-20T00:39:24.076Z,37.2
2019-01-20T00:42:29.941Z,37.2
2019-01-20T00:45:35.895Z,37.2
2019-01-20T00:48:41.758Z,37.2
2019-01-20T00:51:47.709Z,37.1
2019-01-20T00:54:53.667Z,37.2
2019-01-20T00:57:59.538Z,37.2
2019-01-20T01:01:05.489Z,37.2
2019-01-20T01:04:11.559Z,37.2
2019-01-20T01:07:17.410Z,37.2
2019-01-20T01:10:23.478Z,37.2
2019-01-20T01:13:29.331Z,37.2
2019-01-20T01:16:35.273Z,37.3
2019-01-20T01:19:41.320Z,37.3
2019-01-20T01:22:47.190Z,37.3
2019-01-20T01:25:53.163Z,37.4
2019-01-20T01:28:59.075Z,37.3
2019-01-20T01:32:05.082Z,37.3
2019-01-20T01:35:11.146Z,37.3
2019-01-20T01:38:17.021Z,37.3
2019-01-20T01:41:22.954Z,37.3
2019-01-20T01:44:28.829Z,37.4
2019-01-20T01:47:34.873Z,37.4
2019-01-20T01:50:40.744Z,37.4
2019-01-20T01:53:46.686Z,37.5
2019-01-20T01:56:52.749Z,37.4
2019-01-20T01:59:58.625Z,37.4
2019-01-20T02:03:04.564Z,37.5
2019-01-20T02:06:10.526Z,37.4
2019-01-20T02:09:16.581Z,37.4
2019-01-20T02:12:22.858Z,37.5
2019-01-20T02:15:28.817Z,37.5
2019-01-20T02:18:34.899Z,37.5
2019-01-20T02:21:40.841Z,37.6
2019-01-20T02:24:46.799Z,37.5
2019-01-20T02:27:52.678Z,37.6
2019-01-20T02:31:00.060Z,37.6
2019-01-20T02:34:05.988Z,37.6
2019-01-20T02:37:11.965Z,37.6
2019-01-20T02:40:17.924Z,37.7
2019-01-20T02:43:23.986Z,37.7
2019-01-20T02:46:29.873Z,37.7
2019-01-20T02:49:35.830Z,37.7
2019-01-20T02:52:41.683Z,37.8
2019-01-20T02:55:47.618Z,37.7
2019-01-20T02:58:53.576Z,37.8
2019-01-20T03:01:59.460Z,37.7
2019-01-20T03:05:05.498Z,37.8
2019-01-20T03:08:11.492Z,37.8
2019-01-20T03:11:17.370Z,37.8
2019-01-20T03:14:23.379Z,37.8
2019-01-20T03:17:29.255Z,37.8
2019-01-20T03:20:35.167Z,37.8
2019-01-20T03:23:41.153Z,37.9
2019-01-20T03:26:47.115Z,37.9
2019-01-20T03:29:53.176Z,37.9
2019-01-20T03:32:59.242Z,37.8
2019-01-20T03:36:05.484Z,37.9
2019-01-20T03:39:11.570Z,37.9
2019-01-20T03:42:17.448Z,37.9
2019-01-20T03:45:23.390Z,37.9
2019-01-20T03:48:29.460Z,38
2019-01-20T03:51:35.508Z,38.1
2019-01-20T03:54:41.482Z,38
2019-01-20T03:57:47.529Z,38
2019-01-20T04:00:53.493Z,38
2019-01-20T04:03:59.488Z,38
2019-01-20T04:07:05.515Z,38
2019-01-20T04:10:11.391Z,38
2019-01-20T04:13:17.546Z,38
2019-01-20T04:16:23.589Z,38
2019-01-20T04:19:29.511Z,38
2019-01-20T04:22:35.509Z,38
2019-01-20T04:25:41.500Z,38.1
2019-01-20T04:28:47.432Z,38.1
2019-01-20T04:31:53.496Z,38.1
2019-01-20T04:34:59.460Z,38.1
2019-01-20T04:38:05.409Z,38.1
2019-01-20T04:41:11.371Z,38.1
2019-01-20T04:44:17.329Z,38.1
2019-01-20T04:47:23.289Z,38.1
2019-01-20T04:50:29.248Z,38.2
2019-01-20T04:53:35.312Z,38.1
2019-01-20T04:56:41.274Z,38.2
2019-01-20T04:59:47.142Z,38.2
2019-01-20T05:02:55.259Z,38.1
2019-01-20T05:06:01.190Z,38.1
2019-01-20T05:09:07.258Z,38.2
2019-01-20T05:12:13.217Z,38.1
2019-01-20T05:15:19.135Z,38.1
2019-01-20T05:18:25.008Z,38.1
2019-01-20T05:21:31.120Z,38.2
2019-01-20T05:24:37.060Z,38.1
2019-01-20T05:27:43.047Z,38.1
2019-01-20T05:30:49.077Z,38.2
2019-01-20T05:33:55.042Z,38.2
2019-01-20T05:37:01.003Z,38.2
2019-01-20T05:40:06.870Z,38.2
2019-01-20T05:43:12.920Z,38.2
2019-01-20T05:46:18.877Z,38.2
2019-01-20T05:49:24.834Z,38.2
2019-01-20T05:52:30.827Z,38.2
2019-01-20T05:55:36.757Z,38.2
2019-01-20T05:58:42.718Z,38.2
2019-01-20T06:01:48.783Z,38.2
2019-01-20T06:04:54.667Z,38.3
2019-01-20T06:08:00.600Z,38.3
2019-01-20T06:11:06.559Z,38.3
2019-01-20T06:14:12.494Z,38.3
2019-01-20T06:17:18.887Z,38.3
2019-01-20T06:20:24.771Z,38.3
2019-01-20T06:23:30.807Z,38.4
2019-01-20T06:26:36.763Z,38.4
2019-01-20T06:29:42.636Z,38.4
2019-01-20T06:32:48.573Z,38.4
2019-01-20T06:35:54.541Z,38.4
2019-01-20T06:39:00.494Z,38.4
2019-01-20T06:42:06.556Z,38.4
2019-01-20T06:45:12.428Z,38.4
2019-01-20T06:48:18.378Z,38.5
2019-01-20T06:51:24.337Z,38.5
2019-01-20T06:54:30.285Z,38.4
2019-01-20T06:57:36.259Z,38.4
2019-01-20T07:00:42.219Z,38.4
2019-01-20T07:03:48.083Z,38.4
2019-01-20T07:06:54.029Z,38.5
2019-01-20T07:09:59.900Z,38.5
2019-01-20T07:13:11.685Z,38.5
2019-01-20T07:16:17.613Z,38.5
2019-01-20T07:19:23.704Z,38.5
2019-01-20T07:22:29.661Z,38.6
2019-01-20T07:25:35.621Z,38.6
2019-01-20T07:28:41.525Z,38.5
2019-01-20T07:31:47.538Z,38.5
2019-01-20T07:34:53.603Z,38.5
2019-01-20T07:37:59.664Z,38.5
2019-01-20T07:41:05.539Z,38.5
2019-01-20T07:44:11.584Z,38.5
2019-01-20T07:47:17.542Z,38.5
2019-01-20T07:50:23.429Z,38.5
2019-01-20T07:53:29.288Z,38.5
2019-01-20T07:56:35.193Z,38.5
2019-01-20T07:59:41.188Z,38.4
2019-01-20T08:02:47.239Z,38.5
2019-01-20T08:05:53.113Z,38.5
2019-01-20T08:08:59.058Z,38.4
2019-01-20T08:12:05.123Z,38.4
2019-01-20T08:15:10.994Z,38.4
2019-01-20T08:18:16.937Z,38.4
2019-01-20T08:21:22.896Z,38.4
2019-01-20T08:24:28.965Z,38.5
2019-01-20T08:27:34.837Z,38.4
2019-01-20T08:30:40.781Z,38.5
2019-01-20T08:33:49.548Z,38.4
2019-01-20T08:36:55.502Z,38.5
2019-01-20T08:40:01.627Z,38.5
2019-01-20T08:43:07.564Z,38.5
2019-01-20T08:46:13.553Z,38.5
2019-01-20T08:49:19.604Z,38.4
2019-01-20T08:52:25.564Z,38.5
2019-01-20T08:55:31.519Z,38.4
2019-01-20T08:58:37.479Z,38.5
2019-01-20T09:01:43.547Z,38.3
2019-01-20T09:04:49.419Z,38.4
2019-01-20T09:07:55.357Z,38.3
2019-01-20T09:11:01.246Z,38.3
2019-01-20T09:14:07.184Z,38.3
2019-01-20T09:17:13.244Z,38.3
2019-01-20T09:20:19.309Z,38.3
2019-01-20T09:23:25.471Z,38.3
2019-01-20T09:26:31.428Z,38.3
2019-01-20T09:29:37.488Z,38.2
2019-01-20T09:32:45.015Z,38.2
2019-01-20T09:35:51.144Z,38.2
2019-01-20T09:38:57.015Z,38.3
2019-01-20T09:42:05.837Z,38.2
2019-01-20T09:45:11.900Z,38.3
2019-01-20T09:48:17.862Z,38.3
2019-01-20T09:51:24.019Z,38.3
2019-01-20T09:54:29.891Z,38.3
2019-01-20T09:57:35.830Z,38.2
2019-01-20T10:00:41.814Z,38.3
2019-01-20T10:03:50.256Z,38.3
2019-01-20T10:06:56.275Z,38.2
2019-01-20T10:10:02.149Z,38.2
2019-01-20T10:13:08.198Z,38.2
2019-01-20T10:16:14.207Z,38.2
2019-01-20T10:19:20.427Z,38.2
2019-01-20T10:22:26.487Z,38.2
2019-01-20T10:25:33.725Z,38.2
2019-01-20T10:28:39.726Z,38.2
2019-01-20T10:31:45.605Z,38.2
2019-01-20T10:34:51.552Z,38.1
2019-01-20T10:37:57.512Z,38.2
2019-01-20T10:41:03.575Z,38.1
2019-01-20T10:44:09.663Z,38.1
2019-01-20T10:47:15.670Z,38.1
2019-01-20T10:50:24.520Z,38.1
2019-01-20T10:53:33.244Z,38.1
2019-01-20T10:56:39.304Z,38.1
2019-01-20T10:59:45.178Z,38.1
2019-01-20T11:02:51.220Z,38.1
2019-01-20T11:05:57.180Z,38.1
2019-01-20T11:09:03.141Z,38
2019-01-20T11:12:09.099Z,38
2019-01-20T11:15:14.971Z,38
2019-01-20T11:18:20.925Z,38
2019-01-20T11:21:26.983Z,38
2019-01-20T11:24:33.022Z,38
2019-01-20T11:27:39.001Z,38
2019-01-20T11:30:44.873Z,38
2019-01-20T11:33:50.822Z,38
2019-01-20T11:36:56.784Z,38
2019-01-20T11:40:02.745Z,38
2019-01-20T11:43:08.695Z,38
2019-01-20T11:46:14.860Z,38
2019-01-20T11:49:20.923Z,38
2019-01-20T11:52:26.931Z,38
2019-01-20T11:55:32.840Z,38
2019-01-20T11:58:38.803Z,38
2019-01-20T12:01:44.675Z,38
2019-01-20T12:04:52.159Z,38
2019-01-20T12:07:58.026Z,37.9
2019-01-20T12:11:04.047Z,38
2019-01-20T12:14:10.035Z,38
2019-01-20T12:17:16.106Z,38
2019-01-20T12:20:22.056Z,38
2019-01-20T12:23:27.991Z,37.9
2019-01-20T12:26:33.981Z,38
2019-01-20T12:29:39.941Z,37.9
2019-01-20T12:32:53.085Z,38
2019-01-20T12:35:59.352Z,38
2019-01-20T12:39:05.300Z,38
2019-01-20T12:42:11.263Z,38
2019-01-20T12:45:17.323Z,37.9
2019-01-20T12:48:23.255Z,37.9
2019-01-20T12:51:29.445Z,37.9
2019-01-20T12:54:35.379Z,38
2019-01-20T12:57:41.454Z,37.9
2019-01-20T13:00:47.327Z,37.9
2019-01-20T13:03:53.274Z,37.9
2019-01-20T13:06:59.151Z,37.9
2019-01-20T13:10:05.102Z,37.9
2019-01-20T13:13:11.156Z,37.9
2019-01-20T13:16:17.104Z,37.9
2019-01-20T13:19:23.087Z,37.9
2019-01-20T13:22:29.149Z,37.9
2019-01-20T13:25:35.103Z,37.9
2019-01-20T13:28:41.150Z,37.9
2019-01-20T13:31:47.020Z,37.9
2019-01-20T13:34:52.971Z,37.9
2019-01-20T13:37:58.926Z,37.9
2019-01-20T13:41:04.999Z,37.9
2019-01-20T13:44:10.871Z,37.9
2019-01-20T13:47:16.805Z,37.9
2019-01-20T13:50:22.884Z,37.9
2019-01-20T13:53:28.752Z,37.9
2019-01-20T13:56:34.713Z,38
2019-01-20T13:59:40.661Z,37.9
2019-01-20T14:02:46.616Z,37.9
2019-01-20T14:05:52.882Z,37.9
2019-01-20T14:08:58.754Z,37.9
2019-01-20T14:12:04.698Z,38.2
2019-01-20T14:15:10.647Z,38.2
2019-01-20T14:18:16.720Z,37.8
2019-01-20T14:21:22.787Z,37.8
2019-01-20T14:24:28.661Z,37.9
2019-01-20T14:27:34.530Z,38.1
2019-01-20T14:30:40.558Z,38.2
2019-01-20T14:33:46.432Z,38.2
2019-01-20T14:36:52.581Z,38.3
2019-01-20T14:39:58.583Z,38
2019-01-20T14:43:04.805Z,38.6
2019-01-20T14:46:10.861Z,38.8
2019-01-20T14:49:16.833Z,38.1
2019-01-20T14:52:22.987Z,38.5
2019-01-20T14:55:28.854Z,38.4
2019-01-20T14:58:34.841Z,38.6
2019-01-20T15:01:40.706Z,38.3
2019-01-20T15:04:46.710Z,38
2019-01-20T15:07:52.676Z,37.7
2019-01-20T15:10:58.752Z,37.7
2019-01-20T15:14:04.701Z,37.6
2019-01-20T15:17:10.774Z,37.6
2019-01-20T15:20:16.834Z,37.5
2019-01-20T15:23:22.776Z,37.4
2019-01-20T15:26:28.852Z,37.4
2019-01-20T15:29:34.722Z,37.3
2019-01-20T15:32:40.663Z,37.3
2019-01-20T15:35:46.720Z,37.3
2019-01-20T15:38:52.651Z,37.2
2019-01-20T15:41:58.536Z,37.2
2019-01-20T15:45:04.490Z,37.3
2019-01-20T15:48:17.625Z,37.2
2019-01-20T15:51:23.501Z,37.2
2019-01-20T15:54:29.442Z,37.2
2019-01-20T15:57:35.401Z,37.2
2019-01-20T16:00:41.362Z,37.2
2019-01-20T16:03:47.351Z,37.2
2019-01-20T16:06:53.390Z,37.2
2019-01-20T16:09:59.264Z,37.3
2019-01-20T16:13:05.318Z,37.3
2019-01-20T16:16:11.253Z,37.3
2019-01-20T16:19:17.240Z,37.3
2019-01-20T16:22:23.291Z,37.3
2019-01-20T16:25:29.298Z,37.3
2019-01-20T16:28:35.206Z,37.3
2019-01-20T16:31:41.080Z,37.4
2019-01-20T16:34:47.228Z,37.6
2019-01-20T16:37:53.205Z,37.4
2019-01-20T16:40:59.175Z,37.4
2019-01-20T16:44:05.204Z,37.3
2019-01-20T16:47:11.268Z,37.3
2019-01-20T16:50:19.909Z,37.3
2019-01-20T16:53:25.848Z,37.3
2019-01-20T16:56:31.732Z,37.4
2019-01-20T16:59:37.664Z,37.3
2019-01-20T17:02:43.726Z,37.4
2019-01-20T17:05:49.690Z,37.4
2019-01-20T17:08:55.645Z,37.5
2019-01-20T17:12:01.605Z,37.4
2019-01-20T17:15:07.489Z,37.5
2019-01-20T17:18:13.393Z,37.5
2019-01-20T17:21:19.399Z,37.5
2019-01-20T17:24:25.365Z,37.5
2019-01-20T17:27:31.300Z,37.5
2019-01-20T17:30:37.243Z,37.5
2019-01-20T17:33:43.222Z,37.5
2019-01-20T17:36:49.189Z,37.5
2019-01-20T17:39:55.128Z,37.5
2019-01-20T17:43:03.761Z,37.6
2019-01-20T17:46:09.721Z,37.6
2019-01-20T17:49:15.681Z,37.6
2019-01-20T17:52:21.554Z,37.6
2019-01-20T17:55:27.630Z,37.6
2019-01-20T17:58:33.561Z,37.6
2019-01-20T18:01:39.518Z,37.6
2019-01-20T18:04:45.401Z,37.6
2019-01-20T18:07:51.438Z,37.7
2019-01-20T18:10:57.397Z,37.7
2019-01-20T18:14:03.288Z,37.7
2019-01-20T18:17:09.214Z,37.6
2019-01-20T18:20:15.174Z,37.7
2019-01-20T18:23:21.132Z,37.7
2019-01-20T18:26:27.094Z,37.7
2019-01-20T18:29:33.054Z,37.7
2019-01-20T18:32:41.753Z,37.7
2019-01-20T18:35:47.739Z,37.7
2019-01-20T18:38:53.801Z,37.8
2019-01-20T18:41:59.730Z,37.8
2019-01-20T18:45:05.592Z,37.8
2019-01-20T18:48:11.585Z,37.8
2019-01-20T18:51:17.453Z,37.8
2019-01-20T18:54:23.401Z,37.8
2019-01-20T18:57:29.279Z,37.7
2019-01-20T19:00:35.314Z,37.8
2019-01-20T19:03:41.205Z,37.7
2019-01-20T19:06:47.135Z,37.8
2019-01-20T19:09:53.091Z,37.8
2019-01-20T19:12:59.167Z,37.8
2019-01-20T19:16:09.629Z,37.8
2019-01-20T19:19:15.515Z,37.8
2019-01-20T19:22:21.753Z,37.8
2019-01-20T19:25:27.907Z,37.8
2019-01-20T19:28:33.868Z,37.8
2019-01-20T19:31:39.807Z,37.8
2019-01-20T19:34:45.787Z,37.9
2019-01-20T19:37:51.688Z,38
2019-01-20T19:40:57.720Z,38.1
2019-01-20T19:44:03.654Z,38.2
2019-01-20T19:47:09.631Z,38.2
2019-01-20T19:50:15.490Z,38.3
2019-01-20T19:53:21.561Z,38.3
2019-01-20T19:56:27.521Z,38.3
2019-01-20T19:59:33.370Z,38.4
2019-01-20T20:02:39.323Z,38.5
2019-01-20T20:05:45.287Z,38.5
2019-01-20T20:08:51.246Z,38.5
2019-01-20T20:11:57.200Z,38.6
2019-01-20T20:15:03.165Z,38.6
2019-01-20T20:18:09.230Z,38.6
2019-01-20T20:21:15.184Z,38.7
2019-01-20T20:24:26.056Z,38.8
2019-01-20T20:27:31.923Z,38.8
2019-01-20T20:30:37.859Z,38.9
2019-01-20T20:33:43.935Z,38.9
2019-01-20T20:36:49.802Z,38.9
2019-01-20T20:39:55.747Z,38.9
2019-01-20T20:43:01.816Z,39
2019-01-20T20:46:07.980Z,38.9
2019-01-20T20:49:13.845Z,39
2019-01-20T20:52:19.789Z,39.1
2019-01-20T20:55:25.865Z,39.1
2019-01-20T20:58:31.731Z,39.1
2019-01-20T21:01:37.777Z,39.1
2019-01-20T21:04:43.644Z,39.1
2019-01-20T21:07:49.585Z,39.2
2019-01-20T21:10:55.545Z,39.2
2019-01-20T21:14:01.422Z,39.2
2019-01-20T21:17:07.363Z,39.3
2019-01-20T21:20:13.241Z,39.2
2019-01-20T21:23:19.295Z,39.3
2019-01-20T21:26:25.247Z,39.3
2019-01-20T21:29:31.203Z,39.4
2019-01-20T21:32:37.174Z,39.4
2019-01-20T21:35:43.136Z,39.4
2019-01-20T21:38:50.834Z,39.4
2019-01-20T21:41:56.784Z,39.4
2019-01-20T21:45:02.752Z,39.5
2019-01-20T21:48:08.712Z,39.4
2019-01-20T21:51:14.638Z,39.5
2019-01-20T21:54:20.564Z,39.5
2019-01-20T21:57:26.505Z,39.5
2019-01-20T22:00:32.438Z,39.4
2019-01-20T22:03:38.410Z,39.5
2019-01-20T22:06:44.472Z,39.5
2019-01-20T22:09:50.434Z,39.6
2019-01-20T22:12:56.393Z,39.6
2019-01-20T22:16:02.251Z,39.6
2019-01-20T22:19:08.223Z,39.6
2019-01-20T22:22:14.071Z,39.6
2019-01-20T22:25:20.013Z,39.6
2019-01-20T22:28:25.967Z,39.6
2019-01-20T22:31:31.845Z,39.6
2019-01-20T22:34:39.117Z,39.7
2019-01-20T22:37:45.080Z,39.7
2019-01-20T22:40:50.958Z,39.7
2019-01-20T22:43:56.999Z,39.7
2019-01-20T22:47:03.065Z,39.7
2019-01-20T22:50:08.951Z,39.7
2019-01-20T22:53:15.126Z,39.7
2019-01-20T22:56:21.048Z,39.6
2019-01-20T22:59:27.056Z,39.8
2019-01-20T23:02:33.132Z,39.7
2019-01-20T23:05:39.026Z,39.7
2019-01-20T23:08:44.982Z,39.7
2019-01-20T23:11:50.880Z,39.7
2019-01-20T23:14:56.899Z,39.7
2019-01-20T23:18:03.010Z,39.7
2019-01-20T23:21:09.741Z,39.7
2019-01-20T23:24:15.699Z,39.7
2019-01-20T23:27:21.656Z,39.8
2019-01-20T23:30:27.622Z,39.7
2019-01-20T23:33:33.580Z,39.7
2019-01-20T23:36:39.539Z,39.8
2019-01-20T23:39:45.430Z,39.8
2019-01-20T23:42:51.351Z,39.8
2019-01-20T23:45:57.230Z,39.8
2019-01-20T23:49:03.201Z,39.8
2019-01-20T23:52:09.229Z,39.8
2019-01-20T23:55:15.185Z,39.7
2019-01-20T23:58:21.158Z,39.7
